Date,TemperatureHighF,TemperatureAvgF,TemperatureLowF,DewpointHighF,DewpointAvgF,DewpointLowF,HumidityHigh,HumidityAvg,HumidityLow,PressureMaxIn,PressureMinIn,WindSpeedMaxMPH,WindSpeedAvgMPH,GustSpeedMaxMPH,PrecipitationSumIn
2013-1-1,18,10,-1,3,0,-6,83,65,49,30.56,30.40,25,7,28,0.00
2013-1-2,18,9,-2,3,-2,-9,77,61,42,30.64,30.43,14,4,15,0.00
2013-1-3,27,8,-4,8,-2,-10,78,63,41,30.76,30.63,6,1,7,0.00
2013-1-4,30,16,6,10,4,-2,79,61,36,30.68,30.39,3,1,3,0.00
2013-1-5,32,19,6,8,1,-4,68,46,31,30.58,30.40,24,4,30,0.00
2013-1-6,42,31,15,8,1,-4,46,28,21,30.52,29.95,25,7,27,0.00
2013-1-7,38,31,25,15,4,0,62,32,22,30.00,29.76,21,8,28,0.00
2013-1-8,32,27,24,18,16,14,71,63,52,30.40,29.81,34,14,45,0.00
2013-1-9,47,34,17,18,13,8,80,44,26,30.43,30.02,30,10,34,0.00
2013-1-10,42,36,25,16,9,4,57,33,22,30.01,29.40,15,9,23,0.00
2013-1-11,29,17,7,21,7,-3,83,64,54,29.87,29.23,21,9,34,0.02
2013-1-12,6,1,-5,-3,-7,-13,77,70,56,30.34,29.88,10,2,13,0.00
2013-1-13,3,-6,-16,-6,-13,-22,79,73,60,30.60,30.36,7,1,9,0.00
2013-1-14,5,-5,-17,-7,-15,-23,76,62,50,30.70,30.58,18,4,32,0.00
2013-1-15,24,14,-2,15,3,-15,74,61,49,30.61,30.49,24,11,30,0.00
2013-1-16,35,23,12,18,12,6,82,63,49,30.56,30.41,28,11,36,0.00
2013-1-17,43,26,11,19,9,4,77,51,29,30.68,30.37,13,4,40,0.00
2013-1-18,39,31,25,11,7,4,44,35,28,30.37,30.14,16,8,19,0.00
2013-1-19,39,31,25,8,6,4,44,33,25,30.31,30.09,32,16,56,0.00
2013-1-20,38,29,22,9,5,2,48,36,27,30.31,30.16,17,6,24,0.00
2013-1-21,38,29,20,13,8,5,54,41,29,30.28,30.19,18,8,37,0.00
2013-1-22,44,35,28,6,2,-4,37,25,18,30.26,30.11,23,10,47,0.00
2013-1-23,50,38,29,12,4,-5,46,24,18,30.25,30.13,14,8,27,0.00
2013-1-24,44,34,24,28,19,7,85,56,29,30.18,29.89,22,9,29,0.04
2013-1-25,39,35,33,27,25,23,71,66,58,30.14,29.98,25,10,38,0.00
2013-1-26,42,36,32,27,26,24,78,65,50,29.99,29.69,15,5,16,0.00
2013-1-27,42,33,26,27,23,19,87,68,45,29.75,29.66,12,4,19,0.00
2013-1-28,33,24,12,24,14,0,87,67,54,29.77,29.59,24,8,28,0.00
2013-1-29,18,11,2,1,-2,-6,69,55,41,30.22,29.77,18,8,22,0.00
2013-1-30,24,17,6,20,9,-3,92,72,63,30.21,30.06,33,13,49,0.12
2013-1-31,26,24,22,18,17,15,85,74,65,30.24,30.08,25,15,39,0.11
2013-2-1,28,25,23,21,18,16,89,77,69,30.27,30.15,22,10,30,0.19
2013-2-2,36,27,19,16,13,9,75,57,40,30.45,30.27,32,16,37,0.00
2013-2-3,39,27,14,12,8,5,74,47,31,30.36,30.05,23,7,23,0.00
2013-2-4,37,27,17,16,11,5,63,52,39,30.11,29.94,16,9,28,0.00
2013-2-5,42,32,21,24,18,12,68,56,45,30.11,29.83,17,8,26,0.00
2013-2-6,39,32,22,25,18,12,72,57,42,30.08,29.75,15,8,28,0.00
2013-2-7,36,25,8,13,5,-1,79,46,24,30.27,30.08,15,6,18,0.00
2013-2-8,42,28,11,14,7,-1,63,41,27,30.13,29.76,10,4,11,0.00
2013-2-9,27,21,11,20,16,7,88,81,55,29.78,29.57,5,1,6,0.38
2013-2-10,20,12,-2,11,6,-7,84,77,61,30.29,29.75,7,1,8,0.00
2013-2-11,18,6,-6,10,-3,-12,82,68,45,30.43,30.29,20,3,20,0.00
2013-2-12,28,16,2,8,2,-9,68,54,41,30.43,30.30,27,7,33,0.00
2013-2-13,28,22,16,16,12,7,76,66,58,30.32,30.13,37,17,49,0.00
2013-2-14,28,19,11,16,11,7,83,72,56,30.41,30.11,23,9,34,0.00
2013-2-15,25,20,8,12,8,4,83,62,46,30.56,30.40,25,9,31,0.00
2013-2-16,38,29,20,17,12,9,67,50,38,30.45,30.02,24,11,29,0.00
2013-2-17,38,29,17,16,9,3,68,44,30,30.00,29.63,20,10,27,0.00
2013-2-18,20,17,12,9,5,-1,72,59,45,30.26,29.82,16,7,20,0.00
2013-2-19,40,24,13,10,2,-5,59,40,20,30.26,29.86,19,5,20,0.00
2013-2-20,41,24,14,17,10,2,88,57,27,29.85,29.65,12,2,13,0.00
2013-2-21,19,15,6,15,11,2,90,83,69,30.07,29.71,10,2,12,0.04
2013-2-22,23,16,7,8,4,1,82,59,46,30.17,29.98,38,10,51,0.00
2013-2-23,31,21,15,17,11,4,85,64,50,30.00,29.78,41,13,60,0.00
2013-2-24,24,15,1,17,8,-4,85,72,56,30.31,29.84,16,5,20,0.06
2013-2-25,34,17,-1,16,4,-6,89,59,34,30.36,30.07,18,4,21,0.00
2013-2-26,22,18,7,13,7,1,75,63,56,30.37,29.92,22,7,24,0.00
2013-2-27,24,14,1,6,1,-5,81,58,38,30.54,30.37,29,11,40,0.00
2013-2-28,28,21,10,14,8,0,70,57,38,30.53,30.38,34,17,44,0.00
2013-3-1,39,29,21,23,18,10,76,62,45,30.47,30.38,29,10,40,0.00
2013-3-2,44,35,29,24,21,17,71,58,42,30.39,30.00,34,16,41,0.00
2013-3-3,40,36,32,27,22,17,83,60,42,30.00,29.63,17,10,36,0.02
2013-3-4,32,19,4,20,8,-3,81,60,45,30.39,29.63,20,9,40,0.00
2013-3-5,43,24,2,8,2,-3,81,42,16,30.50,30.27,13,5,23,0.00
2013-3-6,49,36,17,18,12,0,62,38,24,30.27,29.81,15,7,24,0.00
2013-3-7,49,40,26,24,18,14,73,43,27,29.88,29.78,16,7,22,0.00
2013-3-8,49,35,25,26,18,12,82,54,27,29.89,29.63,14,4,17,0.00
2013-3-9,33,27,18,24,18,8,83,69,56,30.17,29.59,21,6,26,0.00
2013-3-10,41,27,11,17,11,1,80,52,31,30.32,30.15,19,7,27,0.00
2013-3-11,31,27,22,25,19,13,89,73,53,30.19,29.95,29,10,41,0.27
2013-3-12,39,24,14,25,18,11,89,79,54,30.39,30.19,15,3,27,0.02
2013-3-13,47,39,32,27,24,21,72,55,37,30.33,30.20,21,9,29,0.00
2013-3-14,54,44,36,24,22,19,55,42,29,30.25,30.05,15,7,24,0.00
2013-3-15,54,46,31,26,22,17,65,40,26,30.05,29.79,22,9,32,0.00
2013-3-16,46,38,28,31,19,6,76,48,26,29.83,29.70,16,6,22,0.00
2013-3-17,36,30,17,23,11,-2,82,46,32,29.88,29.47,20,10,44,0.00
2013-3-18,29,22,14,15,8,2,67,55,42,30.08,29.87,13,7,20,0.00
2013-3-19,35,26,16,9,1,-3,56,36,22,30.36,30.04,20,10,30,0.00
2013-3-20,44,29,13,27,12,-2,84,53,24,30.35,29.83,18,8,28,0.04
2013-3-21,34,29,18,28,20,7,88,67,50,29.87,29.53,23,7,35,0.07
2013-3-22,25,19,14,12,6,-1,77,56,35,30.04,29.82,14,6,22,0.00
2013-3-23,14,9,1,9,4,-4,84,78,66,30.43,30.03,13,4,14,0.11
2013-3-24,18,10,1,6,0,-6,82,64,45,30.50,30.38,16,5,18,0.00
2013-3-25,22,11,-4,8,1,-9,80,65,48,30.58,30.48,7,2,9,0.00
2013-3-26,39,25,5,27,15,-2,79,65,47,30.50,30.13,12,4,19,0.00
2013-3-27,47,35,23,26,22,17,82,62,33,30.14,30.03,11,4,18,0.00
2013-3-28,53,39,24,27,22,18,82,55,27,30.13,30.04,10,4,14,0.00
2013-3-29,50,41,29,31,26,22,79,56,37,30.08,29.96,16,6,20,0.00
2013-3-30,47,38,25,32,24,16,80,58,42,30.14,29.96,21,11,32,0.04
2013-3-31,54,39,21,20,16,12,72,43,21,30.15,29.98,20,8,30,0.00
2013-4-1,48,35,24,31,25,16,92,67,41,30.03,29.90,12,3,17,0.06
2013-4-2,34,32,28,30,29,25,94,89,83,30.13,29.96,9,2,10,0.00
2013-4-3,54,37,21,30,23,16,89,62,25,30.21,30.08,21,5,22,0.00
2013-4-4,56,43,32,30,26,23,78,53,29,30.13,29.91,15,5,21,0.00
2013-4-5,55,41,32,35,26,21,82,57,33,29.91,29.61,21,6,28,0.03
2013-4-6,46,37,29,31,25,21,88,61,40,29.88,29.77,21,7,42,0.00
2013-4-7,46,36,31,31,27,24,89,68,46,29.85,29.64,21,7,23,0.06
2013-4-8,50,33,15,30,24,9,90,70,40,29.78,29.45,22,6,27,0.11
2013-4-9,14,7,1,8,2,-4,85,79,73,30.48,29.80,9,4,12,0.06
2013-4-10,29,15,-1,18,7,-6,82,73,48,30.51,30.15,26,5,34,0.00
2013-4-11,40,33,25,26,22,18,89,66,47,30.14,29.87,25,12,31,0.01
2013-4-12,43,32,25,27,21,14,90,66,31,29.95,29.84,20,4,29,0.01
2013-4-13,46,35,24,31,22,14,92,60,33,29.88,29.44,20,7,26,0.43
2013-4-14,27,22,16,19,10,4,83,59,39,29.89,29.47,15,7,28,0.03
2013-4-15,24,20,14,18,15,11,92,82,64,30.10,29.81,9,3,12,0.13
2013-4-16,27,20,13,22,15,10,88,84,74,30.15,29.94,11,5,12,0.76
2013-4-17,18,14,6,15,9,1,88,82,74,30.38,30.06,13,4,13,0.15
2013-4-18,26,16,3,13,5,-2,82,64,42,30.46,30.36,18,6,27,0.01
2013-4-19,36,28,19,22,18,11,76,66,54,30.43,30.02,28,11,32,0.00
2013-4-20,43,34,30,29,25,22,89,69,48,30.03,29.91,21,6,31,0.03
2013-4-21,43,36,31,27,23,17,81,60,41,30.06,29.93,12,6,28,0.00
2013-4-22,35,23,13,28,18,9,89,82,67,30.30,29.86,15,5,16,0.18
2013-4-23,28,17,5,13,8,1,86,70,48,30.44,30.30,12,3,17,0.01
2013-4-24,39,29,10,14,9,5,81,46,31,30.41,30.25,22,10,35,0.00
2013-4-25,50,38,22,22,12,4,63,35,22,30.25,29.94,18,6,23,0.00
2013-4-26,52,38,24,26,19,14,70,49,29,30.25,30.03,12,3,15,0.00
2013-4-27,59,48,31,24,19,13,65,32,22,30.25,29.91,17,7,23,0.00
2013-4-28,62,51,39,33,26,19,56,39,27,29.91,29.69,22,8,28,0.00
2013-4-29,61,48,30,27,24,18,78,42,24,29.74,29.42,19,8,32,0.00
2013-4-30,53,42,30,32,29,24,92,63,37,29.85,29.43,16,6,23,0.33
2013-5-1,29,22,12,27,18,9,92,87,83,30.73,29.86,8,2,10,0.12
2013-5-2,39,24,7,22,12,3,87,62,35,30.93,30.58,17,5,22,0.00
2013-5-3,53,41,30,27,17,9,69,39,23,30.57,30.00,21,9,25,0.00
2013-5-4,47,39,35,29,26,23,73,60,40,30.13,29.98,14,6,22,0.00
2013-5-5,50,38,29,34,27,20,77,64,41,30.13,30.00,11,3,11,0.00
2013-5-6,54,43,32,38,31,26,86,64,45,30.00,29.85,14,3,18,0.04
2013-5-7,57,44,33,36,32,28,86,66,35,29.92,29.81,16,4,20,0.00
2013-5-8,51,40,31,38,34,28,91,79,51,30.06,29.88,19,4,21,0.28
2013-5-9,54,41,33,38,34,30,92,77,47,30.16,30.06,15,3,21,0.12
2013-5-10,56,44,30,38,30,25,93,60,33,30.29,30.13,15,5,18,0.00
2013-5-11,61,47,31,34,28,22,92,53,27,30.30,30.13,14,5,19,0.00
2013-5-12,68,55,39,36,31,27,62,42,26,30.16,29.93,14,6,16,0.00
2013-5-13,73,60,43,39,34,30,66,39,24,29.98,29.79,15,7,18,0.00
2013-5-14,73,61,45,39,33,29,57,37,23,29.79,29.63,20,7,23,0.00
2013-5-15,67,54,43,48,38,33,81,57,32,29.71,29.65,21,5,31,0.04
2013-5-16,69,56,46,41,36,28,82,49,24,29.69,29.58,16,7,19,0.00
2013-5-17,70,55,39,37,29,20,80,43,18,29.68,29.60,11,5,21,0.00
2013-5-18,59,46,39,35,30,20,74,54,28,29.74,29.62,23,7,33,0.00
2013-5-19,49,42,37,36,32,28,88,68,51,29.81,29.69,26,14,35,0.06
2013-5-20,49,42,36,39,32,24,91,70,53,29.98,29.79,16,7,27,0.01
2013-5-21,54,42,28,33,28,22,79,57,41,30.00,29.87,16,6,23,0.00
2013-5-22,64,52,39,38,33,28,75,51,31,29.88,29.68,16,6,16,0.00
2013-5-23,74,53,36,45,36,25,91,61,17,29.78,29.60,15,5,21,0.00
2013-5-24,70,53,36,37,28,21,89,44,17,29.85,29.66,18,6,27,0.00
2013-5-25,72,56,36,31,25,20,72,36,14,29.82,29.69,12,4,16,0.00
2013-5-26,72,58,38,30,24,19,56,29,16,29.73,29.60,13,4,18,0.00
2013-5-27,67,54,40,33,26,19,63,36,22,29.64,29.53,15,6,19,0.00
2013-5-28,66,51,34,35,28,20,66,43,26,29.63,29.44,16,4,21,0.00
2013-5-29,50,44,36,37,34,32,89,70,51,29.61,29.42,16,5,25,0.12
2013-5-30,53,44,36,33,27,19,84,55,29,29.79,29.53,19,9,41,0.01
2013-5-31,53,44,30,30,24,21,71,47,31,30.02,29.74,17,8,32,0.00
2013-6-1,59,47,38,38,32,28,76,57,32,30.11,30.02,19,6,26,0.00
2013-6-2,73,54,32,37,30,27,85,48,20,30.04,29.65,12,4,22,0.00
2013-6-3,70,56,41,37,27,16,52,34,18,29.76,29.50,16,6,23,0.00
2013-6-4,69,51,34,39,28,19,79,45,22,29.99,29.75,16,5,22,0.00
2013-6-5,63,49,40,41,34,22,82,61,21,29.98,29.91,11,3,21,0.00
2013-6-6,70,53,35,38,32,27,78,49,24,29.98,29.89,11,3,18,0.00
2013-6-7,71,55,39,43,37,33,84,53,26,29.95,29.61,12,4,15,0.00
2013-6-8,67,58,42,42,36,30,66,46,28,29.77,29.52,22,8,26,0.00
2013-6-9,79,58,38,41,34,28,75,45,19,29.86,29.69,15,4,21,0.00
2013-6-10,83,64,46,45,37,33,65,40,18,29.70,29.55,11,4,27,0.00
2013-6-11,76,68,54,34,29,23,44,25,16,29.68,29.49,14,9,20,0.00
2013-6-12,79,63,41,40,34,25,71,37,18,29.81,29.68,12,4,16,0.00
2013-6-13,77,68,52,42,34,26,56,30,21,29.78,29.52,13,7,27,0.00
2013-6-14,74,64,54,35,29,22,44,28,15,29.73,29.51,19,7,22,0.00
2013-6-15,74,58,36,36,27,16,70,35,15,29.84,29.73,12,3,17,0.00
2013-6-16,72,57,41,42,32,21,68,41,18,29.91,29.80,19,4,20,0.00
2013-6-17,75,57,40,46,38,27,81,53,19,29.91,29.81,17,3,19,0.00
2013-6-18,74,58,40,47,40,33,89,56,23,29.86,29.65,13,3,18,0.00
2013-6-19,79,61,39,44,32,19,88,43,13,29.68,29.46,13,4,22,0.00
2013-6-20,78,59,38,36,28,20,65,33,18,29.68,29.53,16,4,18,0.00
2013-6-21,75,59,38,44,30,23,77,40,15,29.68,29.62,15,5,21,0.00
2013-6-22,72,57,38,42,31,20,76,41,21,29.72,29.58,15,5,26,0.00
2013-6-23,74,59,38,39,29,20,73,35,17,29.75,29.58,17,5,20,0.00
2013-6-24,75,62,42,44,32,25,75,37,16,29.63,29.52,11,4,15,0.00
2013-6-25,70,60,46,44,37,30,61,44,31,29.80,29.53,15,5,22,0.00
2013-6-26,82,68,52,44,38,32,58,36,20,29.84,29.76,13,6,26,0.00
2013-6-27,84,69,51,46,38,33,60,35,18,29.90,29.81,15,5,25,0.00
2013-6-28,87,69,48,51,42,34,70,41,17,29.93,29.82,17,4,23,0.00
2013-6-29,82,65,49,54,47,40,85,57,24,29.87,29.75,16,4,19,0.01
2013-6-30,76,61,50,58,50,44,92,72,32,29.92,29.79,13,3,16,0.09
2013-7-1,76,58,44,57,48,42,96,72,32,30.02,29.92,16,3,21,0.08
2013-7-2,77,59,43,52,44,39,94,62,27,30.01,29.89,14,4,18,0.00
2013-7-3,82,62,44,55,42,36,86,52,22,29.89,29.70,22,6,25,0.06
2013-7-4,79,63,46,53,46,40,86,56,31,29.74,29.62,12,3,16,0.00
2013-7-5,77,62,51,55,49,45,88,64,36,29.66,29.52,19,4,26,0.00
2013-7-6,78,63,50,52,45,39,85,54,27,29.71,29.57,14,5,18,0.02
2013-7-7,83,66,48,50,43,36,80,46,20,29.73,29.65,20,5,23,0.00
2013-7-8,76,64,50,55,45,37,65,51,32,29.85,29.74,18,5,25,0.05
2013-7-9,81,67,54,53,42,37,62,43,22,29.88,29.81,19,6,27,0.00
2013-7-10,84,68,46,54,43,34,81,46,17,29.89,29.72,11,3,14,0.00
2013-7-11,88,69,50,55,44,36,82,48,17,29.74,29.50,12,4,14,0.00
2013-7-12,81,65,53,56,50,44,93,60,32,29.70,29.51,26,7,26,0.78
2013-7-13,76,63,52,56,52,49,93,70,44,29.88,29.72,13,3,21,0.00
2013-7-14,69,58,48,58,52,46,93,82,62,29.94,29.84,12,3,14,0.05
2013-7-15,76,60,48,58,53,47,96,78,49,29.94,29.74,11,2,13,0.00
2013-7-16,75,60,45,54,47,42,94,65,33,29.91,29.80,13,4,15,0.00
2013-7-17,81,65,45,57,50,42,92,61,38,29.91,29.78,19,3,20,0.00
2013-7-18,78,65,52,61,52,45,83,66,41,29.89,29.74,19,2,26,0.02
2013-7-19,76,60,47,60,50,44,91,72,40,29.90,29.75,13,2,15,0.02
2013-7-20,77,59,48,57,49,44,92,72,35,29.81,29.69,5,2,8,0.08
2013-7-21,82,67,48,52,37,23,90,40,15,29.72,29.60,17,6,23,0.00
2013-7-22,84,68,47,34,27,17,55,24,11,29.69,29.62,16,6,22,0.00
2013-7-23,84,70,51,53,33,19,77,32,11,29.73,29.64,13,5,20,0.00
2013-7-24,79,61,47,57,50,44,91,70,37,29.85,29.65,15,3,15,0.00
2013-7-25,74,58,47,54,49,45,94,76,43,30.06,29.80,18,3,20,0.09
2013-7-26,78,61,41,53,44,38,96,60,27,30.08,29.91,18,3,24,0.00
2013-7-27,77,62,49,53,44,38,90,56,31,29.91,29.66,14,3,16,0.01
2013-7-28,71,58,49,54,48,44,92,74,44,29.75,29.64,12,2,18,0.04
2013-7-29,68,59,52,51,43,36,73,57,37,29.94,29.68,16,6,24,0.00
2013-7-30,74,60,44,49,43,39,88,58,30,30.03,29.94,15,4,19,0.00
2013-7-31,79,64,46,49,43,39,80,51,24,30.04,29.85,15,4,16,0.00
2013-8-1,77,59,48,55,45,39,86,62,31,29.88,29.72,18,5,19,0.06
2013-8-2,78,66,56,50,43,38,62,45,26,29.75,29.69,19,7,27,0.00
2013-8-3,79,66,51,52,42,39,71,44,28,29.79,29.71,15,4,17,0.00
2013-8-4,78,66,59,52,43,36,69,45,24,29.79,29.72,19,8,25,0.02
2013-8-5,75,65,58,48,43,38,59,46,30,29.76,29.69,20,9,27,0.00
2013-8-6,77,65,50,49,40,33,73,43,21,29.75,29.67,19,8,26,0.00
2013-8-7,75,60,45,53,42,37,80,55,32,29.77,29.66,9,2,13,0.00
2013-8-8,70,53,42,50,42,36,89,69,37,30.01,29.77,15,2,18,0.20
2013-8-9,67,51,40,52,44,37,94,79,44,30.08,29.98,18,2,18,0.06
2013-8-10,75,58,41,51,40,33,90,56,26,30.10,29.94,15,4,22,0.00
2013-8-11,70,60,48,51,44,38,79,56,39,29.97,29.85,15,4,20,0.00
2013-8-12,74,54,42,49,43,37,93,69,31,30.04,29.93,19,3,25,0.49
2013-8-13,66,52,43,52,44,40,96,77,43,30.09,29.99,16,3,18,0.03
2013-8-14,75,57,39,52,39,33,93,57,25,30.11,29.95,16,5,17,0.00
2013-8-15,78,63,48,47,37,32,71,40,20,29.95,29.81,13,5,24,0.00
2013-8-16,80,60,44,54,42,36,80,55,22,29.94,29.86,9,1,9,0.00
2013-8-17,83,63,46,50,37,29,72,43,17,29.93,29.77,10,2,15,0.00
2013-8-18,80,67,51,51,41,31,59,38,26,29.82,29.73,19,7,24,0.00
2013-8-19,85,68,53,53,40,33,71,40,17,29.83,29.69,9,3,14,0.00
2013-8-20,81,64,52,51,41,31,65,46,23,29.80,29.69,17,3,23,0.00
2013-8-21,78,66,52,54,48,43,85,54,33,29.84,29.74,10,2,10,0.00
2013-8-22,75,58,48,56,49,43,90,73,36,29.95,29.83,11,2,13,0.02
2013-8-23,78,61,50,53,48,44,92,67,34,29.94,29.70,18,4,28,0.34
2013-8-24,74,59,47,52,47,44,92,67,38,29.88,29.74,16,5,20,0.00
2013-8-25,73,59,48,56,49,44,93,72,43,29.93,29.87,12,2,14,0.03
2013-8-26,74,63,50,54,50,48,94,64,45,29.92,29.85,12,6,19,0.00
2013-8-27,79,64,51,55,50,45,92,64,37,29.86,29.74,14,4,14,0.08
2013-8-28,80,60,48,62,52,46,94,78,40,29.94,29.80,9,2,15,0.26
2013-8-29,77,60,48,59,50,45,93,71,40,29.96,29.91,9,1,10,0.02
2013-8-30,77,63,52,61,50,44,83,63,44,29.97,29.83,16,2,16,0.07
2013-8-31,75,63,50,57,49,44,83,63,40,29.84,29.73,20,3,27,0.01
2013-9-1,78,60,44,56,48,41,90,67,36,29.90,29.80,10,2,14,0.00
2013-9-2,80,65,50,58,48,45,82,57,30,29.88,29.71,9,2,14,0.00
2013-9-3,80,64,50,54,49,46,88,61,33,29.86,29.77,9,2,14,0.00
2013-9-4,79,64,51,60,50,43,84,62,38,29.94,29.85,14,2,14,0.00
2013-9-5,81,61,51,58,51,45,90,71,36,29.93,29.86,9,2,11,0.06
2013-9-6,79,62,53,59,51,45,87,69,38,29.95,29.87,9,2,11,0.02
2013-9-7,79,62,48,52,47,43,88,60,33,29.90,29.79,19,4,27,0.06
2013-9-8,76,61,48,53,49,43,88,66,38,29.81,29.65,13,3,14,0.10
2013-9-9,59,53,49,53,49,47,93,85,73,29.86,29.66,12,2,14,0.11
2013-9-10,54,50,46,50,48,44,94,91,83,30.05,29.86,7,1,8,0.18
2013-9-11,54,52,50,53,50,49,96,95,94,30.09,30.02,9,3,11,0.23
2013-9-12,55,52,49,54,50,48,97,96,94,30.12,30.02,11,3,13,0.77
2013-9-13,64,54,49,55,50,47,96,88,61,30.01,29.72,8,1,9,0.74
2013-9-14,64,53,45,51,47,43,94,81,56,29.86,29.70,11,3,15,0.19
2013-9-15,52,48,43,49,47,41,96,94,91,30.07,29.85,10,2,11,0.09
2013-9-16,66,53,41,51,45,40,100,77,49,30.06,29.88,10,4,20,0.02
2013-9-17,70,58,48,47,43,36,85,60,31,29.91,29.61,15,7,25,0.00
2013-9-18,66,54,43,49,43,30,91,67,38,29.75,29.56,12,5,20,0.00
2013-9-19,57,47,31,36,25,18,74,45,23,30.07,29.75,17,7,20,0.00
2013-9-20,67,46,28,39,28,21,82,55,22,30.14,29.97,11,3,15,0.00
2013-9-21,70,58,43,40,34,26,73,41,26,29.97,29.59,15,6,30,0.00
2013-9-22,63,52,43,44,39,34,85,63,43,29.59,29.44,16,5,20,0.00
2013-9-23,52,44,36,39,33,29,78,66,47,29.99,29.41,24,7,30,0.00
2013-9-24,65,53,40,37,30,23,70,44,23,30.05,29.68,16,8,21,0.00
2013-9-25,68,56,40,34,27,18,72,34,21,29.68,29.26,17,9,27,0.00
2013-9-26,64,46,29,42,36,26,90,69,40,29.61,29.37,15,4,23,0.00
2013-9-27,43,38,32,40,32,23,93,79,67,29.92,29.56,17,5,31,0.14
2013-9-28,49,39,29,33,26,20,71,60,49,30.18,29.89,27,8,35,0.00
2013-9-29,59,49,40,29,25,21,58,39,29,30.11,29.75,17,9,22,0.00
2013-9-30,67,54,40,37,30,24,72,41,31,29.78,29.56,18,8,26,0.00
2013-10-1,68,51,34,38,32,29,85,53,25,29.90,29.74,11,4,16,0.00
2013-10-2,66,51,38,39,32,28,81,51,26,29.83,29.65,13,4,16,0.00
2013-10-3,60,46,32,39,33,28,90,62,31,29.67,29.49,14,5,19,0.00
2013-10-4,31,26,20,29,20,12,92,77,59,30.35,29.67,13,2,16,0.00
2013-10-5,39,31,20,21,15,12,78,54,36,30.44,30.32,35,19,41,0.00
2013-10-6,59,43,30,36,26,20,72,52,31,30.40,30.17,26,6,36,0.02
2013-10-7,66,49,30,32,25,20,76,43,18,30.17,29.84,16,5,23,0.00
2013-10-8,62,49,35,31,26,22,71,43,21,29.83,29.62,14,6,19,0.00
2013-10-9,55,42,32,40,33,26,91,74,47,29.87,29.71,11,2,13,0.04
2013-10-10,50,39,32,42,33,30,94,81,58,29.84,29.48,18,3,22,0.04
2013-10-11,39,35,33,32,29,25,92,80,67,30.07,29.48,14,6,21,0.22
2013-10-12,48,35,27,33,27,22,90,73,42,30.15,30.07,15,4,23,0.02
2013-10-13,56,40,26,36,30,24,92,71,37,30.16,29.86,14,3,19,0.04
2013-10-14,39,34,24,35,29,21,94,83,62,30.20,29.75,19,4,21,0.21
2013-10-15,30,26,20,22,20,14,90,78,68,30.34,30.20,10,2,14,0.00
2013-10-16,41,29,17,22,18,14,88,66,37,30.29,30.12,28,7,28,0.00
2013-10-17,39,32,26,28,23,19,91,70,48,30.16,30.01,28,4,37,0.09
2013-10-18,34,26,17,22,17,13,92,69,49,30.28,30.08,19,6,22,0.00
2013-10-19,48,38,29,25,20,16,61,50,38,30.26,29.89,34,13,47,0.00
2013-10-20,40,33,24,31,24,19,92,72,50,30.15,29.84,13,4,14,0.04
2013-10-21,44,35,22,26,23,17,84,62,47,30.29,30.16,17,6,25,0.00
2013-10-22,55,44,37,30,26,23,59,49,34,30.24,30.05,22,11,27,0.00
2013-10-23,58,45,30,29,24,20,74,46,24,30.09,29.99,14,6,20,0.00
2013-10-24,58,40,29,33,27,23,80,63,30,30.17,30.09,9,2,11,0.00
2013-10-25,60,44,31,28,23,21,75,46,24,30.18,30.08,12,4,17,0.00
2013-10-26,57,41,27,32,26,22,84,58,28,30.27,30.12,19,4,26,0.00
2013-10-27,54,44,30,25,22,17,69,44,25,30.12,29.75,20,6,26,0.00
2013-10-28,41,33,22,30,26,19,92,75,59,29.90,29.77,10,3,10,0.00
2013-10-29,45,31,19,29,21,16,91,68,39,30.01,29.90,22,4,43,0.01
2013-10-30,37,31,28,28,22,18,91,69,50,29.90,29.79,17,6,22,0.05
2013-10-31,34,29,26,25,20,16,86,70,61,30.03,29.82,35,16,46,0.09
2013-11-1,37,32,29,25,21,18,83,65,49,30.25,30.00,14,7,18,0.03
2013-11-2,52,40,24,22,17,10,77,42,21,30.27,29.77,17,8,28,0.00
2013-11-3,48,37,18,24,16,7,74,45,22,29.78,29.42,28,12,32,0.00
2013-11-4,34,23,16,18,10,1,87,59,38,30.11,29.77,15,6,23,0.24
2013-11-5,24,19,15,17,8,4,85,62,49,30.35,30.08,31,13,37,0.01
2013-11-6,30,26,19,20,16,7,81,68,60,30.48,30.34,24,13,45,0.02
2013-11-7,44,36,29,26,22,20,70,58,47,30.48,29.92,12,7,24,0.00
2013-11-8,45,41,35,24,21,18,61,45,40,29.94,29.73,26,12,45,0.00
2013-11-9,51,40,28,25,22,20,74,52,33,30.18,29.93,12,5,19,0.00
2013-11-10,53,40,28,24,20,17,72,48,26,30.23,30.14,15,4,21,0.00
2013-11-11,54,40,29,24,21,18,79,47,27,30.48,30.18,25,8,31,0.00
2013-11-12,55,37,24,28,20,9,83,54,23,30.57,30.41,13,2,13,0.00
2013-11-13,53,42,29,30,16,6,87,38,23,30.41,29.95,15,4,18,0.00
2013-11-14,42,36,30,30,20,12,89,56,34,30.01,29.74,21,11,32,0.00
2013-11-15,43,35,27,28,20,14,90,57,39,29.73,29.41,14,6,20,0.02
2013-11-16,30,27,22,23,19,16,85,74,63,29.58,29.25,20,9,34,0.08
2013-11-17,32,26,19,20,16,10,79,64,54,30.19,29.57,28,16,41,0.00
2013-11-18,46,34,25,20,18,15,72,53,31,30.27,30.06,29,10,33,0.00
2013-11-19,44,36,30,28,22,15,80,57,40,30.06,29.71,24,9,37,0.00
2013-11-20,42,35,30,26,24,21,77,64,49,29.88,29.74,25,10,39,0.00
2013-11-21,32,12,7,26,7,2,87,81,74,30.79,29.88,7,2,14,0.07
2013-11-22,32,15,2,12,4,-2,92,65,27,30.93,30.79,4,1,4,0.00
2013-11-23,28,19,8,19,11,0,85,71,52,30.85,30.42,6,1,8,0.00
2013-11-24,37,27,19,26,18,2,88,72,33,30.42,30.13,8,2,11,0.00
2013-11-25,39,30,22,19,16,11,70,56,44,30.35,30.21,11,4,14,0.00
2013-11-26,42,29,18,19,15,11,78,57,36,30.50,30.35,14,3,25,0.00
2013-11-27,47,37,25,18,16,14,64,43,29,30.36,30.10,22,9,27,0.00
2013-11-28,49,33,24,23,18,14,70,56,32,30.18,30.08,10,1,12,0.00
2013-11-29,45,37,25,20,17,11,66,44,32,30.19,30.12,29,16,40,0.00
2013-11-30,42,34,30,20,18,15,57,50,39,30.20,30.11,26,10,32,0.00
2013-12-1,35,31,28,26,22,18,79,68,58,30.18,29.91,20,10,38,0.05
2013-12-2,35,33,31,26,24,21,76,70,63,29.96,29.55,16,9,32,0.08
2013-12-3,32,21,2,26,16,-3,88,79,68,29.74,29.46,12,4,17,0.26
2013-12-4,2,-6,-17,-4,-12,-22,81,76,67,30.49,29.71,6,2,11,0.11
2013-12-5,5,-7,-16,-7,-15,-22,78,68,54,30.59,30.47,10,2,14,0.00
2013-12-6,6,-4,-16,-5,-12,-22,80,68,52,30.67,30.57,8,2,12,0.00
2013-12-7,18,10,0,9,3,-6,89,72,58,30.59,29.90,16,3,21,0.00
2013-12-8,9,4,-1,2,-4,-12,84,68,51,30.27,29.87,27,7,38,0.00
2013-12-9,9,2,-4,-2,-10,-14,66,57,43,30.58,30.27,39,18,45,0.00
2013-12-10,17,14,8,12,5,-3,86,69,57,30.54,30.29,30,16,41,0.08
2013-12-11,28,20,13,11,6,3,68,55,45,30.58,30.44,24,12,34,0.00
2013-12-12,43,31,13,13,8,3,64,39,27,30.52,30.03,29,9,35,0.00
2013-12-13,32,26,12,11,8,5,76,47,32,30.27,29.85,28,13,33,0.00
2013-12-14,28,20,7,15,10,3,85,66,52,30.48,30.28,41,18,54,0.00
2013-12-15,39,31,22,18,16,13,70,54,40,30.43,30.24,38,18,52,0.00
2013-12-16,40,35,32,19,15,12,56,45,36,30.27,30.14,27,15,41,0.00
2013-12-17,45,36,28,18,13,10,47,38,31,30.37,30.11,15,8,27,0.00
2013-12-18,46,40,37,18,14,11,43,34,28,30.11,29.60,17,9,23,0.00
2013-12-19,45,31,10,26,17,5,83,59,36,29.74,29.42,18,6,28,0.00
2013-12-20,27,17,10,15,8,-3,86,67,41,29.86,29.73,34,6,37,0.02
2013-12-21,23,18,12,10,6,1,71,58,48,30.06,29.67,31,8,42,0.00
2013-12-22,20,18,11,15,11,3,82,73,60,30.33,30.06,17,7,29,0.08
2013-12-23,30,25,19,24,18,13,83,74,69,30.42,30.21,23,12,29,0.02
2013-12-24,32,24,16,24,17,6,87,74,64,30.40,30.07,26,9,31,0.18
2013-12-25,29,21,13,10,6,3,69,52,36,30.61,30.39,32,17,40,0.00
2013-12-26,36,28,18,16,10,2,54,45,34,30.49,30.36,33,11,37,0.00
2013-12-27,46,34,26,24,18,13,67,53,42,30.41,30.10,21,6,23,0.00
2013-12-28,37,29,15,20,16,10,87,61,37,30.17,29.90,23,5,27,0.02
2013-12-29,25,17,2,12,6,-2,86,64,45,30.37,30.15,31,9,32,0.00
2013-12-30,29,24,19,16,12,9,72,61,52,30.43,30.19,27,10,36,0.00
2013-12-31,32,28,25,24,21,15,92,74,57,30.20,29.95,28,12,44,0.18
2014-1-1,27,22,13,24,16,8,90,77,63,30.37,29.97,25,7,30,0.13
2014-1-2,34,26,15,17,12,6,68,54,41,30.42,30.15,32,11,37,0.00